Time;durP1;ratioP1;P1;durP2;ratioP2;P2;SDS_P1;SDS_P2;PMS_P1;PMS_P2;Temp;Humidity;BMP_temperature;BMP_pressure;BME280_temperature;BME280_humidity;BME280_pressure;Samples;Min_cycle;Max_cycle;Signal;HPM_P1;HPM_P2
2022/12/03 00:00:37;;;;;;;21.63;14.37;;;;;;;9.77;98.57;100349.47;5037761;28;20201;-57
2022/12/03 00:03:03;;;;;;;18.53;14.47;;;;;;;9.74;98.39;100346.81;5043295;28;20196;-56
2022/12/03 00:05:30;;;;;;;23.07;14.73;;;;;;;9.73;98.50;100351.06;5050430;28;20227;-56
2022/12/03 00:07:57;;;;;;;22.53;14.53;;;;;;;9.70;98.23;100350.97;5053481;28;20188;-56
2022/12/03 00:10:25;;;;;;;19.67;14.33;;;;;;;9.70;98.49;100344.94;5053391;28;20602;-57
2022/12/03 00:12:52;;;;;;;22.30;15.23;;;;;;;9.66;98.67;100351.69;5053255;28;20199;-56
2022/12/03 00:15:19;;;;;;;25.33;14.77;;;;;;;9.62;98.45;100356.66;5053370;28;20200;-55
2022/12/03 00:17:46;;;;;;;18.67;13.97;;;;;;;9.59;98.97;100354.88;5053250;28;20198;-56
2022/12/03 00:20:18;;;;;;;19.27;15.35;;;;;;;9.62;99.24;100351.53;5046496;28;20443;-57
2022/12/03 00:22:45;;;;;;;18.43;13.33;;;;;;;9.58;99.30;100360.84;5046788;28;20195;-57
2022/12/03 00:25:12;;;;;;;17.13;13.03;;;;;;;9.50;99.35;100359.69;5052790;28;20230;-57
2022/12/03 00:27:40;;;;;;;19.23;13.10;;;;;;;9.49;99.57;100366.53;5052185;28;20194;-57
2022/12/03 00:30:08;;;;;;;23.20;14.07;;;;;;;9.55;99.28;100376.13;5053092;28;20188;-57
2022/12/03 00:32:35;;;;;;;18.73;13.13;;;;;;;9.60;99.18;100373.69;5050005;28;20566;-57
2022/12/03 00:35:02;;;;;;;16.10;13.33;;;;;;;9.61;98.81;100368.63;5041459;28;20212;-56
2022/12/03 00:37:29;;;;;;;17.53;12.90;;;;;;;9.56;98.79;100370.16;5033247;28;20652;-57
2022/12/03 00:39:56;;;;;;;23.90;13.40;;;;;;;9.59;98.73;100375.38;5039163;28;20674;-57
2022/12/03 00:42:23;;;;;;;16.53;13.00;;;;;;;9.60;98.81;100373.69;5051428;28;20260;-57
2022/12/03 00:44:51;;;;;;;19.33;11.97;;;;;;;9.60;98.43;100378.84;5048203;28;20212;-58
2022/12/03 00:47:18;;;;;;;19.43;12.77;;;;;;;9.43;98.34;100375.69;5048968;28;20195;-58
2022/12/03 00:49:45;;;;;;;14.43;11.13;;;;;;;9.33;98.46;100374.50;5048440;28;20196;-58
2022/12/03 00:52:11;;;;;;;17.10;12.13;;;;;;;9.34;98.97;100383.06;5039427;28;20230;-58
2022/12/03 00:54:38;;;;;;;14.83;11.77;;;;;;;9.24;99.37;100379.31;5039713;28;20205;-58
2022/12/03 00:57:05;;;;;;;19.17;12.60;;;;;;;9.27;99.45;100384.53;5042786;28;20205;-58
2022/12/03 00:59:32;;;;;;;18.17;12.53;;;;;;;9.29;99.42;100387.16;5032482;28;20204;-58
2022/12/03 01:02:00;;;;;;;17.53;12.83;;;;;;;9.29;99.57;100397.41;5067375;28;20200;-58
2022/12/03 01:04:27;;;;;;;18.57;13.43;;;;;;;9.15;100.00;100391.78;5072259;28;20205;-58
2022/12/03 01:06:54;;;;;;;21.57;14.27;;;;;;;9.13;100.00;100385.75;5072448;28;20662;-57
2022/12/03 01:09:20;;;;;;;19.43;14.67;;;;;;;9.17;100.00;100391.84;5072392;28;20194;-58
2022/12/03 01:11:47;;;;;;;17.40;13.93;;;;;;;9.16;100.00;100388.41;5071737;28;20562;-57
2022/12/03 01:14:17;;;;;;;18.77;14.20;;;;;;;8.99;100.00;100396.28;5072398;28;20192;-57
2022/12/03 01:16:44;;;;;;;19.27;14.23;;;;;;;8.94;100.00;100397.81;5072041;28;20201;-57
2022/12/03 01:19:15;;;;;;;17.90;12.80;;;;;;;8.84;100.00;100382.09;5072502;28;20238;-56
2022/12/03 01:21:42;;;;;;;19.80;14.03;;;;;;;8.77;100.00;100384.38;5068184;28;21702;-57
2022/12/03 01:24:10;;;;;;;20.80;14.73;;;;;;;8.95;100.00;100400.47;5051622;28;20192;-57
2022/12/03 01:26:36;;;;;;;21.70;16.45;;;;;;;9.03;100.00;100399.06;5051015;28;20481;-56
2022/12/03 01:29:04;;;;;;;22.63;15.10;;;;;;;9.13;100.00;100397.69;5052149;28;20199;-56
2022/12/03 01:34:16;;;;;;;21.70;14.97;;;;;;;8.99;100.00;100398.84;5052059;28;20304;-56
2022/12/03 01:36:43;;;;;;;24.50;15.10;;;;;;;8.96;100.00;100396.19;5052477;28;20199;-56
2022/12/03 01:39:10;;;;;;;22.07;15.53;;;;;;;8.88;100.00;100394.22;5051356;28;20188;-56
2022/12/03 01:41:38;;;;;;;19.47;14.43;;;;;;;8.90;100.00;100402.84;5032492;28;20188;-55
2022/12/03 01:44:12;;;;;;;22.70;15.47;;;;;;;8.85;100.00;100404.34;5054117;28;20615;-56
2022/12/03 01:46:41;;;;;;;27.07;14.87;;;;;;;8.93;100.00;100408.91;5072089;28;20210;-55
2022/12/03 01:49:13;;;;;;;24.87;15.20;;;;;;;8.90;100.00;100413.06;5061605;28;20223;-56
2022/12/03 01:51:41;;;;;;;25.17;14.40;;;;;;;8.84;100.00;100410.28;5051523;28;20274;-56
2022/12/03 01:54:16;;;;;;;21.90;15.57;;;;;;;8.45;100.00;100334.50;5044926;28;20193;-57
2022/12/03 01:56:43;;;;;;;24.90;14.00;;;;;;;8.80;100.00;100415.25;5043279;28;20207;-57
2022/12/03 01:59:15;;;;;;;19.33;14.83;;;;;;;8.75;100.00;100411.63;5051618;28;20677;-57
2022/12/03 02:01:41;;;;;;;23.23;14.57;;;;;;;8.77;100.00;100422.81;5052048;28;20188;-56
2022/12/03 02:04:12;;;;;;;26.67;14.73;;;;;;;8.80;100.00;100418.69;5051833;28;20184;-59
2022/12/03 02:06:39;;;;;;;24.07;14.17;;;;;;;8.87;100.00;100424.94;5051394;28;20767;-59
2022/12/03 02:09:09;;;;;;;26.08;16.08;;;;;;;8.93;100.00;100416.59;5051692;28;20864;-59
2022/12/03 02:11:38;;;;;;;20.87;14.73;;;;;;;8.95;100.00;100420.09;5051733;28;20199;-57
2022/12/03 02:14:08;;;;;;;20.00;13.20;;;;;;;8.97;100.00;100418.44;5051670;28;20230;-56
2022/12/03 02:16:35;;;;;;;21.47;13.03;;;;;;;9.01;100.00;100420.31;5051496;28;20594;-56
2022/12/03 02:19:02;;;;;;;19.10;12.97;;;;;;;9.05;100.00;100422.16;5052035;28;20188;-56
2022/12/03 02:21:36;;;;;;;18.97;12.37;;;;;;;9.06;100.00;100424.81;5051954;28;20185;-56
2022/12/03 02:24:12;;;;;;;16.53;11.70;;;;;;;9.07;99.91;100420.53;5054129;28;20547;-57
2022/12/03 02:26:40;;;;;;;21.90;13.27;;;;;;;9.05;99.75;100428.16;5054674;28;20455;-56
2022/12/03 02:29:07;;;;;;;18.20;11.80;;;;;;;9.12;100.00;100421.59;5055306;28;20196;-56
2022/12/03 02:31:33;;;;;;;16.67;12.07;;;;;;;9.15;99.50;100434.50;5055041;28;20191;-57
2022/12/03 02:34:05;;;;;;;20.27;12.23;;;;;;;9.20;99.64;100431.28;5055207;28;20195;-57
2022/12/03 02:36:32;;;;;;;21.47;11.83;;;;;;;9.23;99.11;100433.94;5055355;28;20566;-57
2022/12/03 02:39:00;;;;;;;19.87;12.93;;;;;;;9.22;98.82;100431.34;5055339;28;20605;-56
2022/12/03 02:44:12;;;;;;;21.57;12.63;;;;;;;9.24;98.81;100424.56;5055486;28;20302;-57
2022/12/03 02:46:39;;;;;;;25.60;14.63;;;;;;;9.23;98.95;100425.41;5055224;28;20216;-56
2022/12/03 02:49:07;;;;;;;27.77;14.57;;;;;;;9.17;99.07;100430.31;5054957;28;20199;-55
2022/12/03 02:51:34;;;;;;;27.20;15.13;;;;;;;9.20;99.05;100433.84;5049232;28;20232;-58
2022/12/03 02:54:02;;;;;;;27.57;15.40;;;;;;;9.25;98.79;100431.47;5060198;28;20200;-58
2022/12/03 02:56:32;;;;;;;32.50;17.67;;;;;;;9.29;99.02;100430.75;5054348;28;20450;-56
2022/12/03 02:59:04;;;;;;;30.13;14.67;;;;;;;9.31;98.35;100421.44;5054627;28;20194;-57
2022/12/03 03:01:33;;;;;;;33.20;16.67;;;;;;;9.29;98.10;100420.47;5054751;28;20196;-58
2022/12/03 03:04:01;;;;;;;35.47;16.63;;;;;;;9.24;98.21;100417.75;5072894;28;20195;-57
2022/12/03 03:06:28;;;;;;;32.70;15.53;;;;;;;9.25;98.68;100422.09;5074547;28;20215;-57
2022/12/03 03:08:55;;;;;;;35.20;16.83;;;;;;;9.24;98.67;100424.56;5074863;28;20191;-58
2022/12/03 03:11:22;;;;;;;35.47;17.93;;;;;;;9.25;98.88;100418.66;5074324;28;20188;-58
2022/12/03 03:13:49;;;;;;;44.70;18.20;;;;;;;9.26;98.59;100412.69;5074575;28;20192;-58
2022/12/03 03:16:16;;;;;;;41.97;17.57;;;;;;;9.20;98.42;100408.19;5074531;28;20206;-58
2022/12/03 03:18:44;;;;;;;44.67;19.50;;;;;;;9.20;98.01;100415.03;5074583;28;20229;-58
2022/12/03 03:21:12;;;;;;;47.97;19.87;;;;;;;9.12;98.69;100409.63;5074330;28;20188;-58
2022/12/03 03:23:39;;;;;;;48.17;19.73;;;;;;;9.16;99.28;100426.88;5074368;28;20192;-57
2022/12/03 03:26:07;;;;;;;47.77;20.97;;;;;;;9.22;98.98;100432.22;5074538;28;20562;-58
2022/12/03 03:28:37;;;;;;;44.08;20.17;;;;;;;9.21;99.40;100421.91;5074291;28;20375;-56
2022/12/03 03:31:06;;;;;;;46.07;20.37;;;;;;;9.25;99.35;100428.91;5034087;28;20192;-56
2022/12/03 03:33:34;;;;;;;40.67;19.70;;;;;;;9.04;99.45;100407.63;5034040;28;20185;-56
2022/12/03 03:36:03;;;;;;;40.90;19.53;;;;;;;9.19;99.18;100426.09;5033959;28;20203;-56
2022/12/03 03:38:30;;;;;;;43.10;19.37;;;;;;;9.24;98.81;100424.56;5034486;28;20614;-56
2022/12/03 03:40:59;;;;;;;42.50;19.67;;;;;;;9.24;98.48;100424.56;5034600;28;20247;-56
2022/12/03 03:43:26;;;;;;;38.23;17.47;;;;;;;9.29;98.34;100433.31;5033952;28;20323;-55
2022/12/03 03:45:53;;;;;;;47.15;22.40;;;;;;;9.29;98.65;100435.88;5033372;28;20520;-55
2022/12/03 03:48:22;;;;;;;44.03;19.77;;;;;;;9.35;98.03;100443.78;5034289;28;20193;-55
2022/12/03 03:50:49;;;;;;;40.63;19.37;;;;;;;9.34;97.79;100444.59;5033712;28;20189;-56
2022/12/03 03:53:18;;;;;;;34.60;17.97;;;;;;;9.27;97.79;100432.38;5033727;28;20559;-58
2022/12/03 03:55:45;;;;;;;34.33;18.07;;;;;;;9.35;97.51;100454.06;5034084;28;20199;-58
2022/12/03 03:58:13;;;;;;;33.07;15.93;;;;;;;9.28;97.43;100447.84;5033690;28;20185;-58
2022/12/03 04:00:39;;;;;;;33.00;16.40;;;;;;;9.32;97.42;100453.94;5033646;28;20188;-58
2022/12/03 04:03:06;;;;;;;29.10;16.73;;;;;;;9.36;97.70;100453.25;5033651;28;20555;-56
2022/12/03 04:05:33;;;;;;;36.20;15.80;;;;;;;9.26;97.41;100456.28;5033362;28;20217;-56
2022/12/03 04:08:00;;;;;;;32.27;16.80;;;;;;;9.21;97.41;100463.81;5033441;28;20678;-56
2022/12/03 04:13:12;;;;;;;34.90;16.53;;;;;;;9.28;97.72;100462.34;5033629;28;20339;-56
2022/12/03 04:15:39;;;;;;;33.23;17.13;;;;;;;9.35;97.97;100456.63;5033436;28;20189;-57
2022/12/03 04:20:50;;;;;;;36.63;17.23;;;;;;;9.21;98.13;100439.84;5033218;28;20666;-56
2022/12/03 04:23:16;;;;;;;40.10;18.43;;;;;;;9.35;98.04;100470.31;5033407;28;20578;-56
2022/12/03 04:36:40;;;;;;;41.83;19.87;;;;;;;9.32;97.78;100469.31;5073016;28;20206;-56
2022/12/03 04:39:07;;;;;;;44.67;22.33;;;;;;;9.24;97.68;100475.84;5072878;28;20188;-56
2022/12/03 04:41:35;;;;;;;46.47;23.13;;;;;;;9.26;97.63;100479.34;5059036;28;20197;-57
2022/12/03 04:44:34;;;;;;;62.17;28.33;;;;;;;9.22;97.56;100483.50;5027335;28;20226;-56
2022/12/03 04:47:02;;;;;;;55.67;25.90;;;;;;;9.21;97.91;100479.19;5052014;28;20690;-56
2022/12/03 04:49:29;;;;;;;61.97;25.93;;;;;;;9.20;98.00;100474.03;5052700;28;20257;-57
2022/12/03 04:51:56;;;;;;;67.57;28.03;;;;;;;9.18;98.20;100481.63;5052479;28;20235;-57
2022/12/03 04:54:23;;;;;;;62.63;26.53;;;;;;;9.17;98.23;100469.66;5053172;28;20245;-56
2022/12/03 04:56:51;;;;;;;71.47;27.67;;;;;;;9.17;98.21;100463.66;5052460;28;20210;-56
2022/12/03 04:59:18;;;;;;;61.63;25.53;;;;;;;9.20;98.63;100468.88;5052475;28;20242;-57
2022/12/03 05:01:45;;;;;;;58.13;26.43;;;;;;;9.22;98.13;100474.94;5052535;28;20192;-56
2022/12/03 05:04:13;;;;;;;72.37;28.50;;;;;;;9.26;98.24;100475.09;5052178;28;20196;-58
2022/12/03 05:06:40;;;;;;;74.60;29.27;;;;;;;9.29;98.09;100475.22;5052256;28;20216;-58
2022/12/03 05:09:07;;;;;;;96.22;35.40;;;;;;;9.31;98.14;100476.13;5067113;28;20441;-58
2022/12/03 05:11:34;;;;;;;81.00;30.57;;;;;;;9.34;97.97;100475.38;5052569;28;20654;-58
2022/12/03 05:14:02;;;;;;;90.57;30.73;;;;;;;9.32;97.84;100479.59;5052523;28;20196;-58
2022/12/03 05:16:29;;;;;;;69.83;27.17;;;;;;;9.20;97.92;100482.56;5054280;28;20335;-58
2022/12/03 05:18:55;;;;;;;78.30;30.53;;;;;;;9.08;98.30;100487.25;5069832;28;20210;-58
2022/12/03 05:21:23;;;;;;;83.03;30.07;;;;;;;9.14;98.92;100490.03;5046728;28;20257;-58
2022/12/03 05:23:49;;;;;;;81.73;28.53;;;;;;;9.22;98.91;100498.03;5052196;28;20192;-57
2022/12/03 05:26:16;;;;;;;84.00;30.20;;;;;;;9.26;98.15;100505.00;5051305;28;20558;-60
2022/12/03 05:28:43;;;;;;;70.93;24.40;;;;;;;9.29;97.80;100502.53;5052052;28;20184;-60
2022/12/03 05:31:11;;;;;;;66.60;22.17;;;;;;;9.31;98.16;100500.94;5052304;28;20184;-57
2022/12/03 05:33:38;;;;;;;52.63;23.63;;;;;;;9.25;97.38;100509.28;5054134;28;20191;-57
2022/12/03 05:36:05;;;;;;;71.65;26.65;;;;;;;9.30;97.73;100509.44;5071150;28;20483;-57
2022/12/03 05:38:32;;;;;;;56.73;21.47;;;;;;;9.41;97.39;100508.13;5065341;28;20189;-58
2022/12/03 05:40:59;;;;;;;60.03;21.57;;;;;;;9.42;96.75;100509.91;5051691;28;20188;-57
2022/12/03 05:43:25;;;;;;;59.43;19.67;;;;;;;9.41;96.91;100511.59;5051739;28;20188;-56
2022/12/03 05:45:52;;;;;;;55.70;20.80;;;;;;;9.34;96.66;100514.72;5051822;28;20216;-56
2022/12/03 05:48:20;;;;;;;50.40;20.23;;;;;;;9.22;97.09;100511.72;5052220;28;20250;-56
2022/12/03 05:50:46;;;;;;;42.43;18.63;;;;;;;9.12;97.56;100517.28;5067407;28;20739;-54
2022/12/03 05:53:14;;;;;;;56.33;20.20;;;;;;;9.12;98.08;100501.91;5052975;28;20207;-60
2022/12/03 05:55:42;;;;;;;47.27;19.10;;;;;;;9.02;98.22;100507.50;5040419;28;20204;-55
2022/12/03 05:58:09;;;;;;;43.95;17.50;;;;;;;9.14;98.40;100523.38;5070469;28;20515;-55
2022/12/03 06:00:38;;;;;;;42.37;17.33;;;;;;;9.11;98.92;100519.81;5047934;28;20203;-56
2022/12/03 06:03:06;;;;;;;32.80;14.83;;;;;;;9.16;98.53;100513.16;5054361;28;20204;-56
2022/12/03 06:05:34;;;;;;;33.40;13.17;;;;;;;9.11;98.26;100507.00;5055656;28;20571;-56
2022/12/03 06:08:01;;;;;;;32.27;13.67;;;;;;;9.23;98.35;100526.25;5055914;28;20192;-56
2022/12/03 06:10:29;;;;;;;28.47;12.30;;;;;;;9.23;98.08;100536.53;5055220;28;20199;-57
2022/12/03 06:12:56;;;;;;;25.67;12.03;;;;;;;9.28;97.65;100541.84;5035404;28;20670;-56
2022/12/03 06:15:23;;;;;;;22.03;10.93;;;;;;;9.30;96.79;100540.22;5035961;28;20188;-57
2022/12/03 06:17:50;;;;;;;28.63;11.90;;;;;;;9.31;96.88;100545.38;5070120;28;20199;-55
2022/12/03 06:20:18;;;;;;;21.77;11.20;;;;;;;9.36;96.54;100543.88;5075162;28;20205;-56
2022/12/03 06:22:46;;;;;;;23.03;11.70;;;;;;;9.35;96.35;100541.25;5075207;28;20225;-56
2022/12/03 06:25:14;;;;;;;15.00;9.83;;;;;;;9.35;96.41;100546.38;5075305;28;20188;-56
2022/12/03 06:27:41;;;;;;;14.40;10.30;;;;;;;9.34;95.84;100540.38;5053924;28;20725;-56
2022/12/03 06:30:09;;;;;;;19.07;10.83;;;;;;;9.39;96.15;100548.25;5039544;28;20197;-56
2022/12/03 06:32:36;;;;;;;17.83;9.50;;;;;;;9.34;95.46;100555.75;5047635;28;20680;-55
2022/12/03 06:35:03;;;;;;;12.97;9.43;;;;;;;9.18;95.65;100549.97;5075450;28;20192;-55
2022/12/03 06:37:29;;;;;;;16.60;9.57;;;;;;;9.17;96.25;100556.81;5074980;28;20206;-56
2022/12/03 06:39:58;;;;;;;16.97;11.13;;;;;;;9.18;96.80;100550.88;5062045;28;20193;-56
2022/12/03 06:42:24;;;;;;;13.80;9.93;;;;;;;9.29;97.00;100557.28;5049620;28;20193;-57
2022/12/03 06:44:51;;;;;;;13.70;9.93;;;;;;;9.36;96.91;100551.59;5055211;28;20193;-57
2022/12/03 06:47:18;;;;;;;14.17;10.37;;;;;;;9.40;96.05;100544.84;5054864;28;20641;-55
2022/12/03 06:49:45;;;;;;;14.70;9.60;;;;;;;9.10;95.51;100490.72;5054542;28;20273;-56
2022/12/03 06:52:11;;;;;;;14.17;9.97;;;;;;;9.47;95.69;100557.13;5054641;28;20222;-56
2022/12/03 06:54:38;;;;;;;20.87;11.87;;;;;;;9.42;95.76;100559.47;5055273;28;20617;-56
2022/12/03 06:57:06;;;;;;;16.57;11.50;;;;;;;9.47;95.42;100564.81;5054416;28;20195;-56
2022/12/03 06:59:36;;;;;;;18.37;10.57;;;;;;;9.52;95.61;100559.84;5054676;28;20200;-57
2022/12/03 07:02:03;;;;;;;15.03;10.23;;;;;;;9.54;95.02;100565.88;5053905;28;20234;-58
2022/12/03 07:04:30;;;;;;;17.47;11.30;;;;;;;9.58;95.67;100563.53;5054488;28;20199;-58
2022/12/03 07:06:56;;;;;;;15.30;9.03;;;;;;;9.69;94.64;100569.91;5066178;28;20705;-58
2022/12/03 07:09:23;;;;;;;13.37;9.57;;;;;;;9.75;94.06;100564.13;5061899;28;20195;-57
2022/12/03 07:11:50;;;;;;;15.47;10.00;;;;;;;9.73;93.40;100560.63;5054293;28;20187;-57
2022/12/03 07:14:18;;;;;;;22.07;11.83;;;;;;;9.79;93.26;100571.13;5054044;28;20218;-57
2022/12/03 07:16:45;;;;;;;15.23;10.17;;;;;;;9.82;93.37;100561.84;5071904;28;20195;-58
2022/12/03 07:19:12;;;;;;;20.47;10.43;;;;;;;9.82;92.29;100561.84;5074126;28;20187;-56
2022/12/03 07:21:39;;;;;;;21.77;11.60;;;;;;;9.91;92.42;100557.06;5075125;28;20241;-57
2022/12/03 07:24:06;;;;;;;21.87;11.53;;;;;;;9.81;92.34;100536.09;5072967;28;20573;-57
2022/12/03 07:26:33;;;;;;;18.23;10.47;;;;;;;10.05;91.73;100566.09;5054490;28;20220;-57
2022/12/03 07:28:59;;;;;;;16.03;10.23;;;;;;;10.07;91.24;100561.03;5054349;28;20337;-56
2022/12/03 07:31:28;;;;;;;17.13;9.90;;;;;;;10.06;90.96;100562.72;5053844;28;20809;-59
2022/12/03 07:33:54;;;;;;;17.33;11.10;;;;;;;9.98;91.24;100576.97;5053100;28;20669;-59
2022/12/03 07:36:21;;;;;;;19.10;11.37;;;;;;;10.02;91.40;100575.41;5043854;28;20676;-59
2022/12/03 07:38:48;;;;;;;21.00;10.73;;;;;;;10.06;91.53;100578.13;5033874;28;20214;-59
2022/12/03 07:41:15;;;;;;;17.30;11.10;;;;;;;10.14;91.44;100573.28;5048773;28;20196;-58
2022/12/03 07:43:43;;;;;;;22.30;12.77;;;;;;;10.09;91.75;100573.09;5053873;28;20621;-57
2022/12/03 07:46:10;;;;;;;21.67;11.97;;;;;;;10.12;91.48;100572.31;5053661;28;20658;-56
2022/12/03 07:48:38;;;;;;;18.53;11.63;;;;;;;10.12;91.53;100571.44;5053640;28;20192;-56
2022/12/03 07:51:05;;;;;;;22.77;12.73;;;;;;;10.07;91.41;100579.00;5059059;28;20207;-56
2022/12/03 07:53:32;;;;;;;19.60;13.53;;;;;;;10.09;91.73;100572.22;5073781;28;20195;-57
2022/12/03 07:55:59;;;;;;;22.47;12.63;;;;;;;10.11;91.81;100567.16;5073116;28;20187;-58
2022/12/03 07:58:25;;;;;;;23.53;12.83;;;;;;;10.20;92.00;100575.19;5073505;28;20195;-58
2022/12/03 08:00:52;;;;;;;23.80;12.47;;;;;;;10.17;90.92;100567.38;5053917;28;20187;-58
2022/12/03 08:03:19;;;;;;;19.47;13.60;;;;;;;10.24;91.25;100566.78;5072767;28;20191;-58
2022/12/03 08:05:47;;;;;;;20.93;11.60;;;;;;;10.27;90.99;100572.03;5069138;28;20198;-60
2022/12/03 08:08:14;;;;;;;22.80;14.32;;;;;;;10.43;90.50;100580.31;5051567;28;20443;-57
2022/12/03 08:10:41;;;;;;;21.33;14.03;;;;;;;10.57;89.89;100573.06;5033451;28;20251;-58
2022/12/03 08:13:12;;;;;;;18.80;13.57;;;;;;;10.61;89.59;100578.34;5033635;28;20196;-55
2022/12/03 08:15:39;;;;;;;25.03;14.30;;;;;;;10.64;88.60;100583.59;5039991;28;20258;-56
2022/12/03 08:18:14;;;;;;;23.87;14.17;;;;;;;10.59;88.61;100586.84;5044161;28;20344;-56
2022/12/03 08:20:47;;;;;;;32.10;15.70;;;;;;;10.44;88.87;100582.03;5041349;28;20196;-57
2022/12/03 08:23:17;;;;;;;27.27;19.73;;;;;;;10.56;89.31;100584.16;5033124;28;20670;-57
2022/12/03 08:25:45;;;;;;;41.53;21.25;;;;;;;10.44;89.43;100545.19;5048809;28;20443;-58
2022/12/03 08:28:15;;;;;;;21.50;15.30;;;;;;;10.64;88.51;100557.91;5063241;28;20219;-56
2022/12/03 08:30:43;;;;;;;21.23;13.77;;;;;;;10.76;88.17;100575.41;5057256;28;20196;-57
2022/12/03 08:33:17;;;;;;;22.80;15.23;;;;;;;10.69;87.98;100576.03;5052247;28;20184;-56
2022/12/03 08:35:49;;;;;;;20.77;14.53;;;;;;;10.75;88.69;100568.53;5052084;28;20198;-56
2022/12/03 08:38:20;;;;;;;22.27;15.87;;;;;;;10.85;88.52;100573.13;5050557;28;20182;-56
2022/12/03 08:40:48;;;;;;;27.20;17.07;;;;;;;10.67;88.63;100577.69;5057417;28;20183;-56
2022/12/03 08:43:20;;;;;;;25.70;16.83;;;;;;;10.76;88.59;100584.81;5056912;28;20245;-55
2022/12/03 08:45:48;;;;;;;23.40;16.63;;;;;;;10.88;88.23;100578.38;5052078;28;20199;-58
2022/12/03 08:48:25;;;;;;;22.43;16.43;;;;;;;10.95;87.76;100593.19;5050816;28;20246;-56
2022/12/03 08:50:54;;;;;;;24.23;15.07;;;;;;;10.95;87.74;100584.59;5049693;28;20181;-56
2022/12/03 08:53:29;;;;;;;25.53;15.50;;;;;;;11.01;86.94;100582.22;5051804;28;20194;-57
2022/12/03 08:55:58;;;;;;;23.20;15.47;;;;;;;11.02;86.91;100573.66;5051628;28;20192;-57
2022/12/03 08:58:31;;;;;;;19.98;17.02;;;;;;;11.10;87.09;100580.78;5050340;28;20435;-57
2022/12/03 09:01:05;;;;;;;19.00;14.40;;;;;;;11.10;86.74;100579.91;5049991;28;20752;-56
2022/12/03 09:03:32;;;;;;;21.07;15.17;;;;;;;11.17;86.91;100575.03;5049071;28;20658;-58
2022/12/03 09:05:59;;;;;;;20.13;16.03;;;;;;;11.21;86.09;100576.84;5051498;28;20203;-57
2022/12/03 09:08:28;;;;;;;22.67;15.47;;;;;;;11.24;86.19;100574.38;5051857;28;20212;-57
2022/12/03 09:10:54;;;;;;;22.77;14.80;;;;;;;11.29;86.00;100568.53;5052413;28;20192;-58
2022/12/03 09:13:21;;;;;;;17.17;13.27;;;;;;;11.32;86.01;100568.63;5057671;28;20257;-57
2022/12/03 09:15:48;;;;;;;17.37;13.47;;;;;;;11.22;85.73;100563.19;5058692;28;20198;-58
2022/12/03 09:18:15;;;;;;;17.17;13.43;;;;;;;11.22;85.71;100563.19;5063874;28;20206;-57
2022/12/03 09:20:42;;;;;;;16.97;12.63;;;;;;;11.29;85.96;100571.94;5032094;28;20634;-57
2022/12/03 09:23:09;;;;;;;22.47;13.27;;;;;;;11.07;85.79;100541.28;5031943;28;20192;-57
2022/12/03 09:25:37;;;;;;;16.77;12.03;;;;;;;11.18;86.06;100568.16;5032432;28;20584;-57
2022/12/03 09:28:04;;;;;;;19.33;13.57;;;;;;;11.14;85.82;100562.06;5031676;28;20228;-57
2022/12/03 09:30:31;;;;;;;17.23;12.47;;;;;;;11.12;86.36;100556.00;5031616;28;20189;-59
2022/12/03 09:32:58;;;;;;;16.27;14.47;;;;;;;11.26;87.43;100556.44;5030773;28;20437;-59
2022/12/03 09:35:25;;;;;;;16.13;13.50;;;;;;;11.37;86.80;100556.75;5032699;28;20193;-57
2022/12/03 09:37:53;;;;;;;16.57;12.83;;;;;;;11.58;85.74;100557.38;5038628;28;20205;-58
2022/12/03 09:40:20;;;;;;;17.10;12.70;;;;;;;11.56;85.08;100544.47;5031849;28;20615;-58
2022/12/03 09:42:49;;;;;;;16.47;12.67;;;;;;;11.67;84.78;100547.34;5043220;28;21109;-58
2022/12/03 09:45:16;;;;;;;15.23;12.00;;;;;;;11.62;83.82;100534.34;5051249;28;20245;-57
2022/12/03 09:47:46;;;;;;;14.77;11.33;;;;;;;11.74;83.14;100541.56;5071623;28;20223;-58
2022/12/03 09:50:16;;;;;;;16.50;10.23;;;;;;;11.53;82.97;100517.78;5052344;28;20196;-57
2022/12/03 09:52:44;;;;;;;16.83;10.73;;;;;;;11.74;82.94;100545.03;5051371;28;20710;-57
2022/12/03 09:55:15;;;;;;;17.27;11.73;;;;;;;11.70;83.27;100542.34;5051401;28;20188;-57
2022/12/03 09:57:42;;;;;;;15.37;11.87;;;;;;;11.72;83.69;100544.13;5054168;28;20196;-57
2022/12/03 10:00:17;;;;;;;20.93;12.07;;;;;;;11.76;83.59;100540.78;5071235;28;20283;-57
2022/12/03 10:02:46;;;;;;;13.00;10.87;;;;;;;11.78;83.34;100536.53;5071337;28;20218;-56
2022/12/03 10:05:13;;;;;;;22.20;11.60;;;;;;;11.85;83.40;100537.59;5071257;28;20194;-57
2022/12/03 10:07:40;;;;;;;20.17;11.00;;;;;;;11.82;83.06;100533.25;5071722;28;20222;-56
2022/12/03 10:10:14;;;;;;;23.67;12.43;;;;;;;11.83;83.17;100549.56;5061729;28;20216;-56
2022/12/03 10:12:41;;;;;;;16.33;12.30;;;;;;;11.83;83.08;100531.53;5050426;28;20207;-57
2022/12/03 10:15:12;;;;;;;18.30;12.77;;;;;;;11.83;82.87;100539.28;5055256;28;20204;-56
2022/12/03 10:17:40;;;;;;;18.30;12.20;;;;;;;11.70;82.99;100539.75;5051326;28;20205;-56
2022/12/03 10:20:11;;;;;;;17.93;11.57;;;;;;;11.61;83.20;100537.75;5051329;28;20204;-57
2022/12/03 10:22:37;;;;;;;21.33;12.83;;;;;;;11.52;84.07;100537.47;5056418;28;20199;-57
2022/12/03 10:25:08;;;;;;;21.43;14.60;;;;;;;11.51;84.86;100532.31;5068918;28;20198;-57
2022/12/03 10:27:35;;;;;;;19.83;13.20;;;;;;;11.59;84.90;100528.25;5069585;28;20306;-58
2022/12/03 10:30:05;;;;;;;26.07;14.87;;;;;;;11.29;85.18;100463.03;5071089;28;20191;-59
2022/12/03 10:32:41;;;;;;;21.83;14.07;;;;;;;11.60;84.41;100511.97;5064203;28;20578;-58
2022/12/03 10:35:11;;;;;;;22.27;12.77;;;;;;;11.70;84.05;100516.59;5071551;28;20273;-57
2022/12/03 10:37:57;;;;;;;22.20;12.53;;;;;;;11.66;83.87;100517.28;5071146;28;20561;-57
2022/12/03 10:40:25;;;;;;;20.53;13.30;;;;;;;11.58;83.95;100526.50;5071006;28;20184;-58
2022/12/03 10:42:52;;;;;;;19.33;12.83;;;;;;;11.54;84.09;100520.38;5063334;28;20220;-55
2022/12/03 10:45:21;;;;;;;23.90;12.83;;;;;;;11.51;84.21;100522.00;5053717;28;20563;-56
2022/12/03 10:48:10;;;;;;;27.53;13.70;;;;;;;11.53;84.95;100515.19;5052138;28;20314;-56
2022/12/03 10:50:37;;;;;;;31.57;15.03;;;;;;;11.44;84.62;100520.06;5044123;28;20223;-57
2022/12/03 10:53:04;;;;;;;37.03;16.40;;;;;;;11.33;85.44;100501.75;5042156;28;20239;-58
2022/12/03 10:55:36;;;;;;;34.67;15.20;;;;;;;11.43;85.50;100505.44;5059504;28;20192;-56
2022/12/03 10:58:03;;;;;;;38.43;16.83;;;;;;;11.53;85.43;100510.06;5055963;28;20570;-56
2022/12/03 11:00:30;;;;;;;32.53;15.73;;;;;;;11.49;85.93;100521.94;5047568;28;20657;-57
2022/12/03 11:02:57;;;;;;;36.40;15.27;;;;;;;11.55;85.38;100516.97;5039987;28;20200;-57
2022/12/03 11:05:27;;;;;;;39.27;15.67;;;;;;;11.50;85.55;100518.56;5032974;28;20197;-56
2022/12/03 11:07:54;;;;;;;33.77;15.20;;;;;;;11.55;85.10;100522.13;5032684;28;20216;-58
2022/12/03 11:10:21;;;;;;;31.63;17.10;;;;;;;11.58;84.75;100514.50;5049310;28;20596;-58
2022/12/03 11:13:21;;;;;;;27.23;14.90;;;;;;;11.59;85.10;100521.38;5062205;28;20232;-58
2022/12/03 11:15:48;;;;;;;28.87;14.40;;;;;;;11.62;85.21;100507.75;5064863;28;20199;-57
2022/12/03 11:18:45;;;;;;;27.73;13.60;;;;;;;11.06;84.97;100452.06;5056809;28;20578;-56
2022/12/03 11:21:14;;;;;;;25.87;14.80;;;;;;;11.53;85.16;100502.34;5041304;28;20185;-57
2022/12/03 11:24:04;;;;;;;26.63;13.63;;;;;;;11.65;85.46;100502.66;5054172;28;20547;-56
2022/12/03 11:27:16;;;;;;;25.03;13.77;;;;;;;11.74;84.82;100508.97;5054158;28;20188;-57
2022/12/03 11:29:58;;;;;;;20.77;12.87;;;;;;;11.76;84.04;100509.00;5053788;28;20216;-57
2022/12/03 11:33:07;;;;;;;15.70;12.60;;;;;;;11.70;83.95;100509.72;5053690;28;20195;-57
2022/12/03 11:36:14;;;;;;;22.30;13.07;;;;;;;11.60;84.98;100510.25;5054274;28;20226;-56
2022/12/03 11:38:48;;;;;;;16.63;11.60;;;;;;;11.71;84.80;100511.47;5053856;28;20192;-57
2022/12/03 11:41:17;;;;;;;19.07;12.97;;;;;;;11.58;84.80;100508.47;5054466;28;20199;-56
2022/12/03 11:44:20;;;;;;;16.60;12.10;;;;;;;11.62;84.79;100511.16;5063705;28;20214;-58